Time;durP1;ratioP1;P1;durP2;ratioP2;P2;SDS_P1;SDS_P2;PMS_P1;PMS_P2;Temp;Humidity;BMP_temperature;BMP_pressure;BME280_temperature;BME280_humidity;BME280_pressure;Samples;Min_cycle;Max_cycle;Signal;HPM_P1;HPM_P2
2021/12/11 00:02:09;;;;;;;0.73;0.28;;;17.30;49.50;;;;;;5048567;28;20381;-41
2021/12/11 00:07:32;;;;;;;0.60;0.10;;;17.30;49.50;;;;;;5045573;28;20052;-40
2021/12/11 00:10:10;;;;;;;0.77;0.10;;;17.30;49.60;;;;;;5046945;28;20056;-42
2021/12/11 00:12:44;;;;;;;2.75;0.20;;;17.30;49.50;;;;;;5047134;28;20129;-43
2021/12/11 00:15:16;;;;;;;0.60;0.10;;;17.30;49.50;;;;;;5047121;28;20037;-41
2021/12/11 00:17:44;;;;;;;0.50;0.10;;;17.20;49.40;;;;;;5046918;28;20081;-41
2021/12/11 00:20:18;;;;;;;1.65;0.17;;;17.30;49.40;;;;;;5048589;28;20440;-42
2021/12/11 00:22:45;;;;;;;2.97;0.50;;;17.20;49.30;;;;;;5047901;28;20052;-41
2021/12/11 00:25:15;;;;;;;1.08;0.20;;;17.20;49.30;;;;;;5045611;28;20041;-42
2021/12/11 00:27:46;;;;;;;0.60;0.20;;;17.20;49.30;;;;;;5047230;28;20041;-44
2021/12/11 00:30:21;;;;;;;2.13;0.35;;;17.20;49.30;;;;;;5047159;28;20045;-45
2021/12/11 00:32:49;;;;;;;2.67;0.25;;;17.20;49.30;;;;;;5040286;28;20047;-42
2021/12/11 00:35:20;;;;;;;2.38;0.35;;;17.20;49.30;;;;;;5048487;28;20052;-42
2021/12/11 00:37:48;;;;;;;2.40;0.50;;;17.20;49.30;;;;;;5047280;28;20075;-41
2021/12/11 00:40:20;;;;;;;1.00;0.22;;;17.20;49.30;;;;;;5046280;28;20037;-46
2021/12/11 00:42:49;;;;;;;2.20;0.50;;;17.20;49.30;;;;;;5046885;28;20516;-46
2021/12/11 00:45:19;;;;;;;2.03;0.70;;;17.20;49.30;;;;;;5046831;28;20040;-41
2021/12/11 00:47:49;;;;;;;1.42;1.00;;;17.20;49.20;;;;;;5041952;28;20037;-41
2021/12/11 00:50:18;;;;;;;1.80;0.70;;;17.20;49.20;;;;;;5048364;28;20516;-43
2021/12/11 00:52:53;;;;;;;1.40;0.70;;;17.10;49.20;;;;;;5047163;28;20122;-44
2021/12/11 00:55:25;;;;;;;3.42;1.55;;;17.10;49.10;;;;;;5046086;28;20068;-42
2021/12/11 00:58:05;;;;;;;2.92;0.70;;;17.10;49.10;;;;;;5045960;28;20045;-43
2021/12/11 01:00:37;;;;;;;1.80;0.82;;;17.10;49.10;;;;;;5046368;28;20118;-47
2021/12/11 01:03:06;;;;;;;1.88;0.80;;;17.10;49.20;;;;;;5044965;28;20045;-43
2021/12/11 01:05:37;;;;;;;3.75;0.82;;;17.10;49.10;;;;;;5045954;28;20043;-44
2021/12/11 01:08:15;;;;;;;0.77;0.70;;;17.10;49.10;;;;;;5046207;28;20048;-45
2021/12/11 01:10:45;;;;;;;1.17;0.90;;;17.10;49.10;;;;;;5046060;28;20069;-44
2021/12/11 01:13:15;;;;;;;3.40;0.77;;;17.10;49.10;;;;;;5044349;28;20045;-46
2021/12/11 01:15:47;;;;;;;0.88;0.45;;;17.00;49.00;;;;;;5046181;28;20055;-43
2021/12/11 01:18:23;;;;;;;2.50;0.75;;;17.00;49.00;;;;;;5046797;28;20037;-43
2021/12/11 01:20:57;;;;;;;;;;;17.10;49.10;;;;;;5044524;28;20207;-46
2021/12/11 01:23:45;;;;;;;3.70;0.75;;;17.00;49.00;;;;;;5046309;28;20313;-45
2021/12/11 01:26:16;;;;;;;3.03;1.13;;;16.90;49.10;;;;;;5047009;28;20060;-42
2021/12/11 01:28:44;;;;;;;1.30;0.57;;;16.90;49.10;;;;;;5046487;28;20203;-43
2021/12/11 01:31:14;;;;;;;1.65;0.70;;;16.90;49.00;;;;;;5045537;28;20040;-47
2021/12/11 01:33:42;;;;;;;2.88;0.47;;;16.90;49.00;;;;;;5045680;28;20045;-46
2021/12/11 01:36:10;;;;;;;3.22;0.85;;;17.00;49.00;;;;;;5044992;28;20049;-43
2021/12/11 01:38:38;;;;;;;1.30;0.70;;;16.90;48.90;;;;;;5045512;28;20052;-47
2021/12/11 01:41:08;;;;;;;6.15;0.52;;;16.90;48.90;;;;;;5047116;28;20056;-46
2021/12/11 01:43:40;;;;;;;1.27;0.50;;;16.90;48.90;;;;;;5045575;28;20048;-44
2021/12/11 01:46:09;;;;;;;1.52;0.45;;;17.00;48.90;;;;;;5045687;28;20064;-44
2021/12/11 01:48:40;;;;;;;1.30;0.45;;;16.90;48.90;;;;;;5045601;28;20501;-44
2021/12/11 01:51:11;;;;;;;3.22;0.52;;;16.90;48.80;;;;;;5045744;28;20049;-48
2021/12/11 01:53:42;;;;;;;6.40;0.80;;;16.90;48.80;;;;;;5045256;28;20128;-47
2021/12/11 01:56:12;;;;;;;1.23;0.68;;;16.90;48.80;;;;;;5046388;28;20052;-42
2021/12/11 01:58:44;;;;;;;2.92;0.60;;;16.90;48.80;;;;;;5045485;28;20481;-43
2021/12/11 02:01:17;;;;;;;1.08;0.35;;;16.90;48.80;;;;;;5043976;28;20037;-44
2021/12/11 02:03:45;;;;;;;1.08;0.20;;;16.90;48.80;;;;;;5045315;28;20039;-42
2021/12/11 02:06:12;;;;;;;0.70;0.30;;;16.90;48.80;;;;;;5038880;28;20112;-43
2021/12/11 02:08:41;;;;;;;0.75;0.20;;;16.90;48.70;;;;;;5044094;28;20596;-44
2021/12/11 02:11:13;;;;;;;0.30;0.20;;;16.90;48.80;;;;;;5046192;28;20071;-42
2021/12/11 02:13:47;;;;;;;1.85;0.22;;;16.90;48.70;;;;;;5045489;28;20037;-43
2021/12/11 02:16:19;;;;;;;0.50;0.32;;;16.90;48.70;;;;;;5045156;28;20045;-41
2021/12/11 02:18:49;;;;;;;1.00;0.30;;;16.90;48.70;;;;;;5045054;28;20043;-41
2021/12/11 02:21:20;;;;;;;1.20;0.32;;;16.90;48.70;;;;;;5045053;28;20630;-41
2021/12/11 02:23:56;;;;;;;3.03;0.40;;;16.90;48.70;;;;;;5042543;28;20051;-42
2021/12/11 02:26:24;;;;;;;1.15;0.30;;;16.80;48.60;;;;;;5043878;28;20041;-44
2021/12/11 02:28:58;;;;;;;1.30;0.10;;;16.80;48.60;;;;;;5045500;28;20051;-42
2021/12/11 02:31:29;;;;;;;1.08;0.20;;;16.80;48.60;;;;;;5044985;28;20049;-42
2021/12/11 02:34:07;;;;;;;1.20;0.20;;;16.80;48.60;;;;;;5043917;28;20037;-41
2021/12/11 02:36:40;;;;;;;2.13;0.73;;;16.80;49.00;;;;;;5038882;28;20069;-42
2021/12/11 02:39:12;;;;;;;1.25;0.17;;;16.80;48.60;;;;;;5045221;28;20041;-43
2021/12/11 02:41:49;;;;;;;0.55;0.47;;;16.80;48.60;;;;;;5044902;28;20474;-43
2021/12/11 02:44:20;;;;;;;;;;;16.80;49.20;;;;;;5046961;28;20128;-43
2021/12/11 02:46:52;;;;;;;2.10;0.28;;;16.70;48.60;;;;;;5046418;28;20446;-45
2021/12/11 02:49:22;;;;;;;0.28;0.10;;;16.70;48.70;;;;;;5048591;28;20033;-43
2021/12/11 02:51:53;;;;;;;0.90;0.10;;;16.70;48.70;;;;;;5048254;28;20052;-48
2021/12/11 02:54:27;;;;;;;0.38;0.20;;;16.70;48.60;;;;;;5048689;28;20116;-44
2021/12/11 02:57:00;;;;;;;0.75;0.50;;;16.70;48.60;;;;;;5048780;28;20124;-47
2021/12/11 02:59:30;;;;;;;0.35;0.20;;;16.70;48.60;;;;;;5049071;28;20052;-45
2021/12/11 03:02:05;;;;;;;0.90;0.22;;;16.70;48.50;;;;;;5049965;28;20091;-45
2021/12/11 03:04:38;;;;;;;1.20;0.30;;;16.70;48.50;;;;;;5048803;28;20037;-48
2021/12/11 03:07:09;;;;;;;1.15;0.32;;;16.70;48.50;;;;;;5048328;28;20513;-48
2021/12/11 03:09:41;;;;;;;1.08;0.20;;;16.70;48.50;;;;;;5044870;28;20041;-43
2021/12/11 03:12:12;;;;;;;0.75;0.25;;;16.70;48.90;;;;;;5048553;28;20052;-45
2021/12/11 03:14:39;;;;;;;1.23;0.10;;;16.70;48.50;;;;;;5047230;28;20037;-44
2021/12/11 03:17:08;;;;;;;1.55;0.10;;;16.70;48.50;;;;;;5052643;28;20045;-48
2021/12/11 03:19:39;;;;;;;0.63;0.32;;;16.70;48.40;;;;;;5048061;28;20049;-42
2021/12/11 03:22:10;;;;;;;1.33;0.30;;;16.70;48.40;;;;;;5048671;28;20069;-45
2021/12/11 03:24:39;;;;;;;0.73;0.10;;;16.70;48.50;;;;;;5048532;28;20039;-46
2021/12/11 03:27:06;;;;;;;1.95;0.05;;;16.70;48.40;;;;;;5048750;28;20037;-45
2021/12/11 03:29:35;;;;;;;0.43;0.43;;;16.70;48.40;;;;;;5048275;28;20049;-47
2021/12/11 03:32:03;;;;;;;2.17;0.10;;;16.70;49.00;;;;;;5049751;28;20048;-43
2021/12/11 03:34:30;;;;;;;0.65;0.10;;;16.70;48.40;;;;;;5047920;28;20040;-47
2021/12/11 03:37:00;;;;;;;1.50;0.10;;;16.70;48.30;;;;;;5048236;28;20051;-47
2021/12/11 03:39:31;;;;;;;1.10;0.10;;;16.70;48.40;;;;;;5048140;28;20140;-42
2021/12/11 03:42:05;;;;;;;4.93;0.20;;;16.70;48.30;;;;;;5048230;28;20033;-43
2021/12/11 03:44:32;;;;;;;0.52;0.30;;;16.70;48.30;;;;;;5048399;28;20417;-43
2021/12/11 03:47:04;;;;;;;3.95;0.15;;;16.70;48.30;;;;;;5047435;28;20090;-42
2021/12/11 03:49:31;;;;;;;0.93;0.20;;;16.70;48.30;;;;;;5047506;28;20033;-42
2021/12/11 03:51:58;;;;;;;0.43;0.10;;;16.70;48.30;;;;;;5047597;28;20045;-42
2021/12/11 03:54:28;;;;;;;0.10;0.10;;;16.70;48.30;;;;;;5047869;28;20072;-42
2021/12/11 03:56:56;;;;;;;0.63;0.63;;;16.60;48.20;;;;;;5047155;28;20413;-42
2021/12/11 03:59:26;;;;;;;1.98;0.17;;;16.70;48.30;;;;;;5047069;28;20056;-43
2021/12/11 04:01:59;;;;;;;1.85;0.32;;;16.70;48.20;;;;;;5048155;28;20049;-46
2021/12/11 04:04:29;;;;;;;0.73;0.08;;;16.70;48.20;;;;;;5047693;28;20060;-44
2021/12/11 04:06:58;;;;;;;0.75;0.10;;;16.70;48.20;;;;;;5047548;28;20064;-47
2021/12/11 04:09:27;;;;;;;0.22;0.10;;;16.70;48.20;;;;;;5047901;28;20143;-48
2021/12/11 04:11:55;;;;;;;1.45;0.00;;;16.70;48.20;;;;;;5047555;28;20067;-45
2021/12/11 04:14:28;;;;;;;0.22;0.10;;;16.60;48.10;;;;;;5048100;28;20048;-41
2021/12/11 04:16:58;;;;;;;0.40;0.10;;;16.70;48.20;;;;;;5048095;28;20056;-46
2021/12/11 04:19:26;;;;;;;1.23;0.10;;;16.70;48.20;;;;;;5047579;28;20131;-48
2021/12/11 04:21:53;;;;;;;0.15;0.08;;;16.70;48.20;;;;;;5047209;28;20362;-43
2021/12/11 04:24:24;;;;;;;0.82;0.10;;;16.70;48.20;;;;;;5047115;28;20052;-42
2021/12/11 04:26:52;;;;;;;0.40;0.10;;;16.70;48.20;;;;;;5045969;28;20374;-43
2021/12/11 04:29:20;;;;;;;1.20;0.13;;;16.70;48.10;;;;;;5047992;28;20040;-45
2021/12/11 04:31:49;;;;;;;0.68;0.20;;;16.70;48.10;;;;;;5047110;28;20041;-44
2021/12/11 04:34:19;;;;;;;1.10;0.20;;;16.70;48.10;;;;;;5046814;28;20025;-45
2021/12/11 04:36:50;;;;;;;0.85;0.25;;;16.70;48.10;;;;;;5046386;28;20130;-44
2021/12/11 04:39:19;;;;;;;0.40;0.03;;;16.70;48.10;;;;;;5046453;28;20474;-46
2021/12/11 04:41:54;;;;;;;0.47;0.30;;;16.70;48.10;;;;;;5046490;28;20124;-45
2021/12/11 04:44:28;;;;;;;0.50;0.17;;;16.60;48.00;;;;;;5043914;28;20124;-45
2021/12/11 04:46:57;;;;;;;1.65;0.10;;;16.60;48.00;;;;;;5045401;28;20040;-47
2021/12/11 04:49:32;;;;;;;0.55;0.10;;;16.60;48.00;;;;;;5046757;28;20043;-46
2021/12/11 04:52:05;;;;;;;0.60;0.20;;;16.60;48.00;;;;;;5046754;28;20044;-45
2021/12/11 04:54:46;;;;;;;0.30;0.00;;;16.60;48.00;;;;;;5046291;28;20037;-42
2021/12/11 04:57:51;;;;;;;0.50;0.10;;;16.60;48.00;;;;;;5046469;28;20102;-45
2021/12/11 05:00:32;;;;;;;0.47;0.13;;;16.60;48.00;;;;;;5046759;28;20440;-42
2021/12/11 05:03:28;;;;;;;1.75;0.10;;;16.60;48.00;;;;;;5046468;28;20033;-45
2021/12/11 05:06:02;;;;;;;2.03;0.47;;;16.60;48.00;;;;;;5043011;28;20037;-48
2021/12/11 05:11:13;;;;;;;1.55;0.10;;;16.60;48.00;;;;;;5046849;28;20041;-44
2021/12/11 05:13:41;;;;;;;1.65;0.10;;;16.60;48.00;;;;;;5046179;28;20037;-44
2021/12/11 05:16:11;;;;;;;4.18;0.10;;;16.60;48.00;;;;;;5045630;28;20064;-46
2021/12/11 05:18:43;;;;;;;0.32;0.10;;;16.60;48.00;;;;;;5039932;28;20067;-43
2021/12/11 05:21:13;;;;;;;0.90;0.25;;;16.60;48.00;;;;;;5055277;28;20041;-46
2021/12/11 05:23:40;;;;;;;0.20;0.10;;;16.60;48.00;;;;;;5048315;28;20041;-44
2021/12/11 05:26:07;;;;;;;0.93;0.00;;;16.60;48.00;;;;;;5047160;28;20049;-47
2021/12/11 05:28:36;;;;;;;1.50;0.75;;;16.60;47.90;;;;;;5045533;28;20514;-43
2021/12/11 05:31:06;;;;;;;0.20;0.00;;;16.60;47.90;;;;;;5045262;28;20033;-44
2021/12/11 05:33:34;;;;;;;1.85;0.10;;;16.60;47.90;;;;;;5045283;28;20064;-45
2021/12/11 05:36:03;;;;;;;0.40;0.00;;;16.50;47.90;;;;;;5045547;28;20041;-43
2021/12/11 05:38:30;;;;;;;2.22;0.10;;;16.60;47.90;;;;;;5045726;28;20045;-45
2021/12/11 05:41:01;;;;;;;0.30;0.08;;;16.50;47.90;;;;;;5046750;28;20036;-44
2021/12/11 05:43:28;;;;;;;0.35;0.10;;;16.60;47.90;;;;;;5045770;28;20399;-44
2021/12/11 05:45:55;;;;;;;1.08;0.10;;;16.50;47.90;;;;;;5043762;28;20409;-45
2021/12/11 05:48:23;;;;;;;1.48;0.08;;;16.50;47.80;;;;;;5040996;28;20045;-46
2021/12/11 05:50:53;;;;;;;0.15;0.15;;;16.50;47.80;;;;;;5045783;28;20041;-43
2021/12/11 05:53:23;;;;;;;1.05;0.05;;;16.50;47.80;;;;;;5043132;28;20049;-44
2021/12/11 05:55:53;;;;;;;0.88;0.13;;;16.50;48.50;;;;;;5045797;28;20052;-44
2021/12/11 05:58:35;;;;;;;0.10;0.10;;;16.50;47.90;;;;;;5045330;28;20044;-47
2021/12/11 06:01:03;;;;;;;1.45;0.38;;;16.50;47.90;;;;;;5044652;28;20656;-44
2021/12/11 06:03:31;;;;;;;0.20;0.20;;;16.50;47.90;;;;;;5045196;28;20029;-43
2021/12/11 06:05:59;;;;;;;4.72;0.52;;;16.50;47.80;;;;;;5045687;28;20041;-46
2021/12/11 06:08:27;;;;;;;0.73;0.10;;;16.50;47.80;;;;;;5046063;28;20512;-45
2021/12/11 06:10:54;;;;;;;0.55;0.20;;;16.50;47.80;;;;;;5045641;28;20057;-46
2021/12/11 06:13:21;;;;;;;1.13;0.28;;;16.50;47.80;;;;;;5045039;28;20044;-45
2021/12/11 06:15:48;;;;;;;1.73;0.55;;;16.50;47.80;;;;;;5043958;28;20485;-44
2021/12/11 06:18:18;;;;;;;3.83;0.60;;;16.50;47.80;;;;;;5043568;28;20040;-45
2021/12/11 06:20:47;;;;;;;1.48;0.40;;;16.50;47.80;;;;;;5045165;28;20048;-42
2021/12/11 06:23:15;;;;;;;2.65;0.13;;;16.50;47.80;;;;;;5046379;28;20045;-44
2021/12/11 06:25:43;;;;;;;2.13;0.38;;;16.50;47.80;;;;;;5044509;28;20046;-45
2021/12/11 06:28:11;;;;;;;2.95;0.10;;;16.50;47.80;;;;;;5044564;28;20040;-44
2021/12/11 06:30:39;;;;;;;0.75;0.40;;;16.50;48.40;;;;;;5044887;28;20044;-44
2021/12/11 06:33:07;;;;;;;1.45;0.32;;;16.40;47.80;;;;;;5044938;28;20051;-49
2021/12/11 06:35:41;;;;;;;2.30;0.10;;;16.40;47.80;;;;;;5044957;28;20041;-47
2021/12/11 06:38:11;;;;;;;1.85;0.20;;;16.40;47.80;;;;;;5046508;28;20052;-46
2021/12/11 06:40:38;;;;;;;2.58;0.65;;;16.40;47.80;;;;;;5043491;28;20068;-47
2021/12/11 06:43:06;;;;;;;1.00;0.30;;;16.40;48.40;;;;;;5044471;28;20037;-45
2021/12/11 06:45:34;;;;;;;1.75;0.22;;;16.40;47.80;;;;;;5044946;28;20047;-48
2021/12/11 06:48:01;;;;;;;0.40;0.20;;;16.40;47.80;;;;;;5044999;28;20080;-46
2021/12/11 06:50:28;;;;;;;0.82;0.20;;;16.40;47.80;;;;;;5045409;28;20045;-42
2021/12/11 06:52:56;;;;;;;1.35;0.20;;;16.40;47.80;;;;;;5046152;28;20039;-49
2021/12/11 06:55:23;;;;;;;1.20;0.38;;;16.40;47.80;;;;;;5044908;28;20124;-45
2021/12/11 06:57:50;;;;;;;1.40;0.30;;;16.40;47.80;;;;;;5044139;28;20053;-48
2021/12/11 07:00:21;;;;;;;2.30;0.22;;;16.40;47.80;;;;;;5045121;28;20532;-44
2021/12/11 07:02:48;;;;;;;6.43;0.93;;;16.40;47.80;;;;;;5045100;28;20052;-47
2021/12/11 07:05:15;;;;;;;1.63;0.17;;;16.40;47.80;;;;;;5042281;28;20056;-46
2021/12/11 07:07:43;;;;;;;0.68;0.35;;;16.40;47.80;;;;;;5044449;28;20049;-45
2021/12/11 07:10:13;;;;;;;0.40;0.10;;;16.40;47.80;;;;;;5042991;28;20401;-47
2021/12/11 07:12:41;;;;;;;0.52;0.20;;;16.30;47.80;;;;;;5044038;28;20047;-46
2021/12/11 07:15:10;;;;;;;0.73;0.20;;;16.30;47.80;;;;;;5044679;28;20033;-53
2021/12/11 07:17:40;;;;;;;0.20;0.10;;;16.30;47.80;;;;;;5044492;28;20125;-46
2021/12/11 07:20:10;;;;;;;0.65;0.20;;;16.40;47.80;;;;;;5046194;28;20048;-46
2021/12/11 07:22:39;;;;;;;0.68;0.20;;;16.30;47.80;;;;;;5044495;28;20041;-44
2021/12/11 07:25:11;;;;;;;0.50;0.10;;;16.30;47.80;;;;;;5044383;28;20056;-48
2021/12/11 07:27:39;;;;;;;3.10;0.30;;;16.30;47.80;;;;;;5044334;28;20052;-45
2021/12/11 07:30:07;;;;;;;1.42;0.30;;;16.30;47.80;;;;;;5044472;28;20401;-48
2021/12/11 07:32:34;;;;;;;1.17;0.15;;;16.30;47.80;;;;;;5044544;28;20825;-43
2021/12/11 07:35:03;;;;;;;0.63;0.15;;;16.30;47.80;;;;;;5046249;28;20041;-45
2021/12/11 07:37:31;;;;;;;1.27;0.10;;;16.30;47.80;;;;;;5046975;28;20048;-46
2021/12/11 07:39:58;;;;;;;0.75;0.20;;;16.30;47.80;;;;;;5047287;28;20036;-44
2021/12/11 07:42:25;;;;;;;1.30;0.32;;;16.30;47.80;;;;;;5047446;28;20056;-44
2021/12/11 07:44:53;;;;;;;1.75;0.10;;;16.30;47.80;;;;;;5047740;28;20780;-43
2021/12/11 07:47:20;;;;;;;0.55;0.00;;;16.20;47.70;;;;;;5048741;28;20045;-45
2021/12/11 07:49:47;;;;;;;1.25;0.20;;;16.30;47.80;;;;;;5048149;28;20041;-46
2021/12/11 07:52:15;;;;;;;1.10;0.60;;;16.20;47.70;;;;;;5047449;28;20041;-43
2021/12/11 07:54:42;;;;;;;2.75;0.35;;;16.30;47.80;;;;;;5045567;28;20951;-45
2021/12/11 07:57:09;;;;;;;4.50;1.25;;;16.30;47.80;;;;;;5045882;28;20059;-47
2021/12/11 07:59:37;;;;;;;1.85;0.20;;;16.20;47.80;;;;;;5047298;28;20049;-42
2021/12/11 08:02:05;;;;;;;1.48;0.55;;;16.20;47.70;;;;;;5049063;28;20049;-48
2021/12/11 08:04:32;;;;;;;1.50;0.65;;;16.20;47.80;;;;;;5047093;28;20033;-48
2021/12/11 08:06:59;;;;;;;2.78;0.40;;;16.20;47.70;;;;;;5046833;28;20041;-47
2021/12/11 08:09:28;;;;;;;0.63;0.30;;;16.30;47.80;;;;;;5046268;28;20037;-47
2021/12/11 08:11:55;;;;;;;0.68;0.60;;;16.20;47.80;;;;;;5048069;28;20073;-47
2021/12/11 08:14:23;;;;;;;1.55;0.88;;;16.20;47.80;;;;;;5045985;28;20041;-43
2021/12/11 08:16:54;;;;;;;3.00;0.88;;;16.30;47.80;;;;;;5047863;28;20429;-44
2021/12/11 08:19:25;;;;;;;2.35;0.73;;;16.30;47.80;;;;;;5046930;28;20030;-48
2021/12/11 08:21:56;;;;;;;3.40;0.47;;;16.30;47.80;;;;;;5046313;28;20119;-42
2021/12/11 08:24:26;;;;;;;1.83;1.17;;;16.20;47.70;;;;;;5045851;28;20037;-44
2021/12/11 08:26:57;;;;;;;1.75;0.57;;;16.20;47.70;;;;;;5046651;28;20049;-46
2021/12/11 08:29:24;;;;;;;1.40;0.80;;;16.30;47.70;;;;;;5047373;28;20049;-42
2021/12/11 08:31:55;;;;;;;2.53;1.13;;;16.30;47.70;;;;;;5047931;28;20041;-46
2021/12/11 08:34:23;;;;;;;2.70;1.95;;;16.30;47.70;;;;;;5043635;28;20041;-42
2021/12/11 08:36:50;;;;;;;4.25;1.08;;;16.30;47.70;;;;;;5040174;28;20049;-45
2021/12/11 08:39:18;;;;;;;6.53;1.13;;;16.30;47.60;;;;;;5044070;28;20041;-42
2021/12/11 08:41:48;;;;;;;3.35;1.73;;;16.30;47.60;;;;;;5046525;28;20037;-44
2021/12/11 08:44:18;;;;;;;2.17;1.73;;;16.30;47.60;;;;;;5047599;28;20584;-41
2021/12/11 08:46:48;;;;;;;4.20;1.70;;;16.30;47.60;;;;;;5046951;28;20069;-41
2021/12/11 08:49:18;;;;;;;4.35;1.95;;;16.40;47.60;;;;;;5046597;28;20696;-41
2021/12/11 08:51:48;;;;;;;3.55;1.80;;;16.40;47.60;;;;;;5046094;28;20033;-41
2021/12/11 08:54:17;;;;;;;3.63;1.48;;;16.40;47.50;;;;;;5046235;28;20139;-41
2021/12/11 08:56:44;;;;;;;3.70;1.92;;;16.40;47.50;;;;;;5046043;28;20071;-45
2021/12/11 08:59:14;;;;;;;3.45;1.65;;;16.40;47.40;;;;;;5047496;28;20041;-42
2021/12/11 09:01:49;;;;;;;6.72;2.63;;;16.40;47.40;;;;;;5045856;28;20048;-42
2021/12/11 09:04:22;;;;;;;4.47;1.90;;;16.40;47.30;;;;;;5046016;28;20493;-43
2021/12/11 09:06:54;;;;;;;4.00;2.40;;;16.50;47.40;;;;;;5046098;28;20029;-43
2021/12/11 09:09:27;;;;;;;2.35;1.90;;;16.50;47.30;;;;;;5046387;28;20076;-45
2021/12/11 09:11:57;;;;;;;3.80;2.08;;;16.50;47.30;;;;;;5045013;28;20124;-44
2021/12/11 09:14:29;;;;;;;2.78;1.98;;;16.50;47.20;;;;;;5046558;28;20079;-42
2021/12/11 09:17:02;;;;;;;4.25;2.20;;;16.50;47.20;;;;;;5046670;28;20045;-42
2021/12/11 09:19:33;;;;;;;4.15;2.17;;;16.50;47.10;;;;;;5043660;28;20040;-42
2021/12/11 09:22:04;;;;;;;1.88;1.25;;;16.50;47.00;;;;;;5045338;28;20048;-48
2021/12/11 09:24:36;;;;;;;4.05;2.30;;;16.60;47.10;;;;;;5047412;28;20033;-45
2021/12/11 09:27:07;;;;;;;5.10;2.47;;;16.60;47.00;;;;;;5045785;28;20038;-46
2021/12/11 09:29:37;;;;;;;3.47;2.00;;;16.60;47.00;;;;;;5045825;28;20059;-48
2021/12/11 09:32:14;;;;;;;4.28;2.28;;;16.60;46.90;;;;;;5045636;28;20041;-44
2021/12/11 09:34:46;;;;;;;6.03;2.97;;;16.60;47.00;;;;;;5044040;28;20045;-48
2021/12/11 09:37:14;;;;;;;5.00;2.58;;;16.60;47.00;;;;;;5045000;28;20521;-48
2021/12/11 09:39:46;;;;;;;2.38;1.90;;;16.60;46.90;;;;;;5045534;28;20049;-44
2021/12/11 09:42:12;;;;;;;5.55;3.15;;;16.70;46.90;;;;;;5046047;28;20051;-43
2021/12/11 09:44:44;;;;;;;4.03;2.40;;;16.70;46.90;;;;;;5045562;28;20046;-46
2021/12/11 09:47:15;;;;;;;6.57;2.55;;;16.70;46.90;;;;;;5046931;28;20131;-44
2021/12/11 09:49:46;;;;;;;3.92;2.47;;;16.60;46.80;;;;;;5045030;28;20048;-42
2021/12/11 09:52:23;;;;;;;4.65;2.13;;;16.70;46.80;;;;;;5040889;28;20576;-41
2021/12/11 09:54:53;;;;;;;3.47;1.88;;;16.70;46.80;;;;;;5045414;28;20044;-44
2021/12/11 09:57:24;;;;;;;6.95;2.47;;;16.70;46.70;;;;;;5044427;28;20554;-45
2021/12/11 09:59:55;;;;;;;4.45;1.90;;;16.70;46.70;;;;;;5041394;28;20047;-44
2021/12/11 10:02:26;;;;;;;3.33;1.63;;;16.70;46.60;;;;;;5044471;28;20044;-42
2021/12/11 10:05:00;;;;;;;6.18;3.45;;;16.70;46.60;;;;;;5045911;28;20037;-48
2021/12/11 10:07:33;;;;;;;4.25;1.88;;;16.80;46.60;;;;;;5045606;28;20055;-46
2021/12/11 10:10:14;;;;;;;3.95;1.77;;;16.80;46.60;;;;;;5045061;28;20091;-43
2021/12/11 10:12:44;;;;;;;5.97;2.03;;;16.80;46.50;;;;;;5039417;28;20048;-46
2021/12/11 10:15:18;;;;;;;2.58;1.52;;;16.80;46.50;;;;;;5043854;28;20044;-50
2021/12/11 10:17:49;;;;;;;6.00;2.42;;;16.80;46.50;;;;;;5044882;28;20051;-48
2021/12/11 10:20:21;;;;;;;6.60;2.75;;;16.80;46.50;;;;;;5046166;28;20047;-42
2021/12/11 10:22:49;;;;;;;7.68;2.67;;;16.90;46.50;;;;;;5044998;28;20156;-46
2021/12/11 10:25:21;;;;;;;6.97;3.50;;;16.90;46.40;;;;;;5044980;28;20128;-43
2021/12/11 10:27:49;;;;;;;8.05;3.80;;;16.90;46.30;;;;;;5045180;28;20053;-44
2021/12/11 10:30:23;;;;;;;6.95;3.03;;;16.90;46.30;;;;;;5045070;28;20044;-45
2021/12/11 10:32:50;;;;;;;5.05;2.83;;;16.90;46.30;;;;;;5043399;28;20056;-45
2021/12/11 10:35:22;;;;;;;6.65;2.70;;;16.90;46.20;;;;;;5046391;28;20068;-43
2021/12/11 10:37:49;;;;;;;5.40;2.33;;;17.00;46.20;;;;;;5044339;28;20037;-48
2021/12/11 10:40:20;;;;;;;7.22;3.15;;;17.00;46.20;;;;;;5045106;28;20041;-46
2021/12/11 10:42:55;;;;;;;6.55;3.20;;;17.00;46.10;;;;;;5044976;28;20076;-46
2021/12/11 10:45:25;;;;;;;7.03;2.63;;;17.00;46.70;;;;;;5038823;28;20505;-45
2021/12/11 10:47:55;;;;;;;6.10;2.80;;;17.00;46.00;;;;;;5038894;28;20121;-47
2021/12/11 10:50:25;;;;;;;7.78;3.38;;;17.00;46.00;;;;;;5043750;28;20524;-44
2021/12/11 10:52:52;;;;;;;7.25;2.85;;;17.10;46.00;;;;;;5045356;28;20049;-46
2021/12/11 10:55:28;;;;;;;6.97;2.70;;;17.10;46.00;;;;;;5045466;28;20044;-45
2021/12/11 10:57:57;;;;;;;7.15;2.80;;;17.10;45.90;;;;;;5044670;28;20552;-50
2021/12/11 11:00:29;;;;;;;10.98;2.80;;;17.10;45.90;;;;;;5044898;28;20063;-44
2021/12/11 11:02:57;;;;;;;10.48;2.70;;;17.10;45.90;;;;;;5044433;28;20120;-42
2021/12/11 11:05:29;;;;;;;9.10;2.72;;;17.10;45.80;;;;;;5045362;28;20521;-44
2021/12/11 11:07:56;;;;;;;7.63;3.13;;;17.20;45.80;;;;;;5046691;28;20049;-44
2021/12/11 11:10:28;;;;;;;9.48;2.85;;;17.20;45.80;;;;;;5048677;28;20045;-43
2021/12/11 11:12:58;;;;;;;8.25;2.17;;;17.20;45.70;;;;;;5048420;28;20498;-46
2021/12/11 11:15:29;;;;;;;8.82;3.40;;;17.20;45.70;;;;;;5048418;28;20092;-41
2021/12/11 11:17:57;;;;;;;5.78;2.85;;;17.30;45.70;;;;;;5048114;28;20041;-42
2021/12/11 11:20:28;;;;;;;10.68;4.03;;;17.30;45.70;;;;;;5048925;28;20630;-45
2021/12/11 11:22:56;;;;;;;8.60;2.35;;;17.30;45.50;;;;;;5048965;28;20573;-42
2021/12/11 11:25:26;;;;;;;6.65;2.38;;;17.30;45.50;;;;;;5048372;28;20044;-41
2021/12/11 11:27:57;;;;;;;8.48;3.10;;;17.30;45.40;;;;;;5050396;28;20052;-48
2021/12/11 11:30:32;;;;;;;7.20;1.80;;;17.30;45.40;;;;;;5041574;28;20037;-41
2021/12/11 11:33:01;;;;;;;5.97;2.65;;;17.30;45.30;;;;;;5047856;28;20434;-44
2021/12/11 11:35:30;;;;;;;3.00;1.25;;;17.40;45.40;;;;;;5048836;28;20045;-43
2021/12/11 11:38:00;;;;;;;7.20;2.35;;;17.40;45.30;;;;;;5049379;28;20052;-41
2021/12/11 11:40:30;;;;;;;7.72;3.47;;;17.40;45.30;;;;;;5048166;28;20401;-41
2021/12/11 11:42:58;;;;;;;6.35;2.25;;;17.40;45.30;;;;;;5047844;28;20047;-48
2021/12/11 11:45:26;;;;;;;6.80;2.50;;;17.40;45.20;;;;;;5048127;28;20052;-45
2021/12/11 11:47:55;;;;;;;8.13;2.80;;;17.40;45.20;;;;;;5047516;28;20854;-43
2021/12/11 11:50:27;;;;;;;4.20;2.28;;;17.40;45.20;;;;;;5048252;28;20041;-42
2021/12/11 11:52:54;;;;;;;6.07;2.60;;;17.40;45.20;;;;;;5048284;28;20049;-47
2021/12/11 11:55:25;;;;;;;6.30;1.83;;;17.40;45.20;;;;;;5047454;28;20037;-43
2021/12/11 11:57:54;;;;;;;5.28;2.00;;;17.40;45.20;;;;;;5047362;28;20436;-49
2021/12/11 12:00:26;;;;;;;4.97;2.20;;;17.40;45.20;;;;;;5047504;28;20044;-42
2021/12/11 12:02:57;;;;;;;7.05;2.03;;;17.40;45.20;;;;;;5045397;28;20040;-41
2021/12/11 12:05:25;;;;;;;8.27;1.88;;;17.40;45.20;;;;;;5048174;28;20041;-45
2021/12/11 12:07:52;;;;;;;6.75;2.38;;;17.40;45.20;;;;;;5047810;28;20139;-44
2021/12/11 12:10:26;;;;;;;8.07;1.92;;;17.40;45.20;;;;;;5047480;28;20049;-44
2021/12/11 12:12:54;;;;;;;6.90;1.75;;;17.40;45.20;;;;;;5047042;28;20033;-44
2021/12/11 12:15:25;;;;;;;4.90;1.23;;;17.30;45.10;;;;;;5047099;28;20121;-47
2021/12/11 12:17:52;;;;;;;7.25;2.25;;;17.40;45.80;;;;;;5047049;28;20060;-42
2021/12/11 12:20:22;;;;;;;5.28;2.30;;;17.40;45.20;;;;;;5047936;28;20044;-45
2021/12/11 12:22:51;;;;;;;7.15;2.75;;;17.40;45.20;;;;;;5048138;28;20132;-47
2021/12/11 12:25:19;;;;;;;6.45;2.28;;;17.40;45.20;;;;;;5043541;28;20037;-44
2021/12/11 12:27:47;;;;;;;3.00;1.38;;;17.40;45.20;;;;;;5045991;28;20037;-47
2021/12/11 12:30:18;;;;;;;3.70;1.63;;;17.40;45.20;;;;;;5047020;28;20037;-42
2021/12/11 12:32:47;;;;;;;7.22;1.77;;;17.40;45.10;;;;;;5047355;28;20424;-42
2021/12/11 12:35:17;;;;;;;8.07;2.53;;;17.40;45.10;;;;;;5048506;28;20065;-42
2021/12/11 12:37:46;;;;;;;7.75;2.08;;;17.50;45.20;;;;;;5047054;28;20045;-44
2021/12/11 12:40:18;;;;;;;5.70;1.55;;;17.40;45.10;;;;;;5045793;28;20051;-44
2021/12/11 12:42:54;;;;;;;9.80;1.40;;;17.40;45.00;;;;;;5047176;28;20048;-46
2021/12/11 12:45:26;;;;;;;7.15;1.48;;;17.50;45.10;;;;;;5046971;28;20051;-45
2021/12/11 12:47:59;;;;;;;6.30;1.13;;;17.50;45.00;;;;;;5044519;28;20032;-42
2021/12/11 12:50:30;;;;;;;4.35;1.08;;;17.50;45.00;;;;;;5047102;28;20071;-47
2021/12/11 12:52:59;;;;;;;6.18;1.35;;;17.50;45.00;;;;;;5047886;28;20041;-45
2021/12/11 12:55:29;;;;;;;4.43;1.50;;;17.50;45.00;;;;;;5047119;28;20040;-44
2021/12/11 12:58:01;;;;;;;7.10;1.77;;;17.50;44.90;;;;;;5046322;28;20044;-43
2021/12/11 13:00:33;;;;;;;8.13;2.70;;;17.60;44.90;;;;;;5044674;28;20055;-44
2021/12/11 13:03:04;;;;;;;6.63;1.30;;;17.60;44.90;;;;;;5040531;28;20585;-46
2021/12/11 13:05:35;;;;;;;6.13;1.58;;;17.60;44.90;;;;;;5046737;28;20435;-43
2021/12/11 13:08:09;;;;;;;4.32;1.02;;;17.60;44.90;;;;;;5046244;28;20051;-43
2021/12/11 13:10:45;;;;;;;5.78;1.08;;;17.60;44.80;;;;;;5045954;28;20041;-46